Tiempo atmosférico en la estación meteorológica de Padrón, A Coruña (100 m.)



Fecha
DESCASC
Temp. máxima en grados centígrados (hora)
DESCASC
Temp. mínima en grados centígrados (hora)
DESCASC
Temp. media en grados centígrados
DESCASC
Racha de viento máxima en m/sg (hora)
DESCASC
Velocidad máxima media en intervalos de 10 minutos(hora)
DESCASC
Precipitaciones diarias en mm
DESCASC
Precipitaciones de 00:00 a 06:00 en mm
DESCASC
Precipitaciones de 06:00 a 12:00 en mm
DESCASC
Precipitaciones de 12:00 a 18:00 en mm
DESCASC
Precipitaciones de 18:00 a 24:00 en mm
DESCASC
10-07-2020 27 (16:40) 15.7 (07:00) 21.3 11.94 (22:20) 6.11 (12:30) 0 0 0 0 0
09-07-2020 29.9 (16:50) 15.1 (07:10) 22.5 11.67 (02:20) 7.78 (08:40) 0 0 0 0 0
08-07-2020 29.3 (17:30) 16.2 (06:40) 22.8 11.67 (21:30) 6.67 (15:50) 0 0 0 0 0
07-07-2020 32 (17:20) 15.3 (07:30) 23.7 10.56 (02:30) 5.56 (10:40) 0 0 0 0 0
06-07-2020 26.6 (17:00) 15.7 (00:00) 21.2 13.61 (12:50) 8.61 (13:40) 0 0 0 0 0
05-07-2020 31.1 (15:10) 16.4 (00:00) 23.8 10.83 (21:10) 6.11 (16:20) 0 0 0 0 0
04-07-2020 30.4 (16:50) 10.1 (00:00) 20.3 7.78 (20:30) 3.89 (20:30) 0 0 0 0 0
03-07-2020 24.5 (17:00) 7.8 (07:10) 16.2 7.22 (12:00) 4.17 (12:10) 0 0 0 0 0
02-07-2020 21.2 (17:20) 11.9 (00:00) 16.6 7.22 (15:50) 4.44 (15:40) 0 0 0 0 0
01-07-2020 22.5 (15:00) 15.1 (00:00) 18.8 5.83 (17:10) 2.5 (15:50) 0.3 0 0.3 0 0
30-06-2020 29.1 (16:20) 13 (00:00) 21.1 10.28 (11:50) 5.83 (12:50) 0 0 0 0 0
29-06-2020 25.6 (17:30) 13.5 (00:00) 19.6 8.89 (15:50) 5.56 (14:50) 0.1 0 0.1 0 0
28-06-2020 19.7 (18:00) 14.3 (00:00) 17 5 (15:00) 2.22 (15:10) 0.1 0 0.1 0 0
27-06-2020 18.3 (18:10) 15.1 (00:00) 16.7 7.5 (13:00) 2.78 (13:10) 4.3 0.7 3.2 0.4 0
26-06-2020 20.4 (16:00) 13.7 (00:00) 17 7.78 (16:40) 3.06 (16:30) 2.1 0 0 0 2.1
25-06-2020 24.5 (18:10) 14.4 (00:00) 19.4 5.83 (11:30) 3.33 (12:10) 0 0 0 0 0
24-06-2020 24.6 (17:00) 15.1 (00:00) 19.9 4.17 (16:10) 1.94 (21:00) 0 0 0 0 0
23-06-2020 31.4 (15:10) 15.7 (00:00) 23.5 6.39 (09:30) 4.17 (08:20) 0 0 0 0 0
22-06-2020 31 (17:30) 12.1 (00:00) 21.6 5.28 (07:40) 3.61 (08:20) 0 0 0 0 0
21-06-2020 21.3 (17:50) 15.7 (00:00) 18.5 5.28 (13:10) 2.22 (23:59) 1.9 1.5 0.3 0.1 0
20-06-2020 22.5 (16:50) 14.1 (00:00) 18.3 7.5 (16:20) 3.33 (16:20) 0.1 0.1 0 0 0
19-06-2020 22 (15:30) 7.4 (00:00) 14.7 6.67 (16:00) 3.33 (08:40) 0 0 0 0 0
18-06-2020 20.9 (17:50) 8.6 (00:00) 14.8 5.28 (10:00) 3.89 (10:10) 0 0 0 0 0
17-06-2020 17.8 (12:00) 8.7 (00:00) 13.2 4.72 (13:50) 3.06 (09:20) 0.7 0 0 0.7 0
16-06-2020 17.5 (14:40) 12.7 (00:00) 15.1 5 (03:20) 2.22 (05:10) -- 11.5 -- 2.4 0
15-06-2020 20.2 (17:00) 13 (00:00) 16.6 6.94 (15:50) 3.06 (15:50) 2.5 0.2 2.3 0 0
14-06-2020 18.1 (13:20) 12.5 (00:00) 15.3 7.22 (17:20) 3.33 (15:50) 2 0.7 1.3 0 0
13-06-2020 18 (16:20) 11.7 (00:00) 14.8 8.33 (16:10) 3.61 (16:10) 7.8 0 7.8 0 0
12-06-2020 17.2 (16:50) 10.1 (00:00) 13.7 6.11 (15:30) 2.22 (15:10) 9.4 2.9 2.7 3.7 0.1

Gráficas

Temp. máximas Temp. mínimas Temp. medias Precipitaciones Rachas de viento máximas Velocidades máximas media en intervalos de 10 minutos

Datos horarios

Fecha y hora oficial Temperatura (ºC) Velocidad del viento (km/h) Dirección del viento Racha (km/h) Dirección de racha Precipitación (mm) Presión (hPa) Tendencia (hPa) Humedad (%)
2020-07-11 23:00:00 21.7 16 Este 35 Este 0 -- -- 61
2020-07-11 22:00:00 23.2 21 Nordeste 35 Nordeste 0 -- -- 56
2020-07-11 21:00:00 25.1 13 Este 31 Este 0 -- -- 52
2020-07-11 20:00:00 26.7 14 Este 33 Nordeste 0 -- -- 49
2020-07-11 19:00:00 28 17 Nordeste 30 Este 0 -- -- 47
2020-07-11 18:00:00 29.3 16 Este 28 Nordeste 0 -- -- 44
2020-07-11 17:00:00 30.3 17 Este 29 Este 0 -- -- 44
2020-07-11 16:00:00 28.8 19 Este 34 Este 0 -- -- 44
2020-07-11 15:00:00 28.1 22 Este 40 Este 0 -- -- 46
2020-07-11 14:00:00 26.9 23 Este 38 Este 0 -- -- 47
2020-07-11 13:00:00 26 22 Este 44 Este 0 -- -- 50
2020-07-11 12:00:00 23.7 25 Este 41 Este 0 -- -- 55
2020-07-11 11:00:00 22.1 24 Este 41 Este 0 -- -- 60
2020-07-11 10:00:00 20.2 21 Este 36 Este 0 -- -- 64
2020-07-11 09:00:00 18.1 15 Este 30 Este 0 -- -- 70
2020-07-11 08:00:00 16 14 Este 33 Nordeste 0 -- -- 77
2020-07-11 07:00:00 15.1 13 Este 36 Este 0 -- -- 77
2020-07-11 06:00:00 14.9 14 Este 39 Este 0 -- -- 77
2020-07-11 05:00:00 15.4 19 Este 45 Este 0 -- -- 75
2020-07-11 04:00:00 15.5 21 Este 42 Nordeste 0 -- -- 75
2020-07-11 03:00:00 15.4 23 Este 39 Este 0 -- -- 75
2020-07-11 02:00:00 15.5 18 Este 36 Nordeste 0 -- -- 73
2020-07-11 01:00:00 15.9 17 Este 33 Este 0 -- -- 70
2020-07-11 00:00:00 16.4 15 Este 33 Este 0 -- -- 68
2020-07-10 23:00:00 17.4 18 Este 43 Este 0 -- -- 65
2020-07-10 22:00:00 18.6 17 Este 39 Este 0 -- -- 63
2020-07-10 21:00:00 20 16 Nordeste 38 Este 0 -- -- 58
2020-07-10 20:00:00 21.6 17 Nordeste 33 Nordeste 0 -- -- 55
2020-07-10 19:00:00 23.2 14 Nordeste 40 Nordeste 0 -- -- 53
2020-07-10 18:00:00 24.3 19 Nordeste 39 Nordeste 0 -- -- 49
2020-07-10 17:00:00 26.3 17 Nordeste 36 Este 0 -- -- 49
2020-07-10 16:00:00 25.8 17 Este 36 Este 0 -- -- 49
2020-07-10 15:00:00 25 17 Este 36 Este 0 -- -- 52
2020-07-10 14:00:00 24.7 15 Este 36 Este 0 -- -- 51
2020-07-10 13:00:00 23.7 19 Nordeste 37 Este 0 -- -- 53
2020-07-10 12:00:00 21.2 17 Este 38 Nordeste 0 -- -- 63
2020-07-10 11:00:00 18.4 18 Este 36 Este 0 -- -- 72
2020-07-10 10:00:00 16.9 14 Este 40 Nordeste 0 -- -- 79
2020-07-10 09:00:00 16.1 12 Este 34 Este 0 -- -- 81
2020-07-10 08:00:00 15.7 13 Este 38 Este 0 -- -- 83
2020-07-10 07:00:00 15.8 15 Este 36 Este 0 -- -- 83
2020-07-10 06:00:00 16 13 Este 30 Este 0 -- -- 83
2020-07-10 05:00:00 16.3 15 Este 32 Este 0 -- -- 83
2020-07-10 04:00:00 16.5 17 Este 31 Este 0 -- -- 83
2020-07-10 03:00:00 16.9 11 Este 26 Este 0 -- -- 83
2020-07-10 02:00:00 16.5 9 Este 26 Este 0 -- -- 83
2020-07-10 01:00:00 16.6 5 Este 25 Este 0 -- -- 83
2020-07-10 00:00:00 17 10 Este 33 Este 0 -- -- 80
2020-07-09 23:00:00 17.5 16 Este 27 Este 0 -- -- 77
2020-07-09 22:00:00 19.7 12 Nordeste 24 Este 0 -- -- 63
2020-07-09 21:00:00 21.4 13 Este 27 Este 0 -- -- 40
2020-07-09 20:00:00 22.9 13 Este 35 Este 0 -- -- 39
2020-07-09 19:00:00 24.8 12 Nordeste 32 Nordeste 0 -- -- 38
2020-07-09 18:00:00 27 14 Nordeste 29 Nordeste 0 -- -- 36
2020-07-09 17:00:00 28.7 12 Nordeste 30 Este 0 -- -- 35
2020-07-09 16:00:00 29.6 13 Nordeste 29 Este 0 -- -- 36
2020-07-09 15:00:00 28.1 15 Este 36 Este 0 -- -- 38
2020-07-09 14:00:00 27 18 Este 35 Este 0 -- -- 40
2020-07-09 13:00:00 26 24 Este 39 Este 0 -- -- 39
2020-07-09 12:00:00 24.7 19 Este 38 Este 0 -- -- 45
2020-07-09 11:00:00 21.8 22 Este 36 Este 0 -- -- 55
2020-07-09 10:00:00 19.2 22 Este 40 Este 0 -- -- 69
2020-07-09 09:00:00 17 25 Este 40 Este 0 -- -- 77
2020-07-09 08:00:00 15.9 19 Este 30 Este 0 -- -- 82
2020-07-09 07:00:00 15.2 16 Este 33 Este 0 -- -- 83
2020-07-09 06:00:00 15.5 18 Este 33 Este 0 -- -- 82
2020-07-09 05:00:00 15.9 16 Este 33 Este 0 -- -- 80
2020-07-09 04:00:00 16.4 12 Este 32 Este 0 -- -- 79
2020-07-09 03:00:00 16.7 13 Este 42 Este 0 -- -- 77
2020-07-09 02:00:00 17.3 14 Este 30 Nordeste 0 -- -- 75
2020-07-09 01:00:00 18.3 12 Nordeste 31 Este 0 -- -- 69
2020-07-09 00:00:00 18.8 18 Nordeste 33 Nordeste 0 -- -- 66
2020-07-08 23:00:00 20.1 5 Este 29 Nordeste 0 -- -- 61
2020-07-08 22:00:00 21.7 18 Este 42 Este 0 -- -- 56
2020-07-08 21:00:00 22.6 14 Nordeste 32 Nordeste 0 -- -- 58
2020-07-08 20:00:00 24.3 16 Nordeste 36 Nordeste 0 -- -- 54
2020-07-08 19:00:00 26 13 Nordeste 28 Nordeste 0 -- -- 52
2020-07-08 18:00:00 27.9 12 Nordeste 28 Este 0 -- -- 48
2020-07-08 17:00:00 28.1 17 Este 35 Este 0 -- -- 47
2020-07-08 16:00:00 27.9 23 Este 36 Este 0 -- -- 49
2020-07-08 15:00:00 26.9 24 Este 35 Este 0 -- -- 50
2020-07-08 14:00:00 25.9 19 Este 30 Este 0 -- -- 55
2020-07-08 13:00:00 25.7 18 Este 32 Este 0 -- -- 57
2020-07-08 12:00:00 23.7 21 Este 33 Este 0 -- -- 61
2020-07-08 11:00:00 21.8 22 Este 39 Este 0 -- -- 66
2020-07-08 10:00:00 20.1 17 Este 33 Nordeste 0 -- -- 73
2020-07-08 09:00:00 18.3 12 Este 30 Este 0 -- -- 81
2020-07-08 08:00:00 17.4 13 Este 26 Este 0 -- -- 86
2020-07-08 07:00:00 16.4 4 Este 17 Sudeste 0 -- -- 86
2020-07-08 06:00:00 16.5 4 Este 18 Este 0 -- -- 85
2020-07-08 05:00:00 16.7 6 Este 15 Este 0 -- -- 83
2020-07-08 04:00:00 16.7 3 Este 13 Sudeste 0 -- -- 82
2020-07-08 03:00:00 16.9 3 Este 13 Este 0 -- -- 79
2020-07-08 02:00:00 18 3 Este 13 Este 0 -- -- 75
2020-07-08 01:00:00 19.1 5 Este 15 Nordeste 0 -- -- 70
2020-07-08 00:00:00 19.7 3 Este 13 Este 0 -- -- 68
2020-07-07 23:00:00 21.5 4 Este 20 Este 0 -- -- 60
2020-07-07 22:00:00 23.5 0 Calma 7 Este 0 -- -- 59
2020-07-07 21:00:00 24.5 0 Calma 9 Oeste 0 -- -- 57
2020-07-07 20:00:00 26 3 Oeste 15 Oeste 0 -- -- 52
2020-07-07 19:00:00 28.4 5 Oeste 14 Noroeste 0 -- -- 48
2020-07-07 18:00:00 29.7 4 Oeste 13 Oeste 0 -- -- 44
2020-07-07 17:00:00 31 5 Este 18 Este 0 -- -- 41
2020-07-07 16:00:00 30 9 Sudeste 18 Este 0 -- -- 43
2020-07-07 15:00:00 30.2 10 Este 21 Sudeste 0 -- -- 44
2020-07-07 14:00:00 28 9 Este 22 Este 0 -- -- 47
2020-07-07 13:00:00 26.5 14 Este 21 Este 0 -- -- 49
2020-07-07 12:00:00 25.3 13 Este 26 Este 0 -- -- 53
2020-07-07 11:00:00 22.5 18 Este 30 Este 0 -- -- 59
2020-07-07 10:00:00 20.8 17 Este 27 Este 0 -- -- 66
2020-07-07 09:00:00 18.7 9 Este 21 Este 0 -- -- 72
2020-07-07 08:00:00 16.5 7 Este 20 Este 0 -- -- 80
2020-07-07 07:00:00 15.4 6 Este 23 Este 0 -- -- 81
2020-07-07 06:00:00 15.8 11 Este 29 Este 0 -- -- 80
2020-07-07 05:00:00 15.7 8 Este 34 Este 0 -- -- 80
2020-07-07 04:00:00 15.9 15 Este 32 Este 0 -- -- 78
2020-07-07 03:00:00 15.8 13 Este 38 Nordeste 0 -- -- 78
2020-07-07 02:00:00 15.9 14 Este 36 Este 0 -- -- 77
2020-07-07 01:00:00 15.9 15 Este 34 Nordeste 0 -- -- 77
2020-07-07 00:00:00 16.4 14 Este 31 Este 0 -- -- 75
2020-07-06 23:00:00 17.5 13 Este 29 Nordeste 0 -- -- 69
2020-07-06 22:00:00 19.1 13 Este 37 Este 0 -- -- 61
2020-07-06 21:00:00 21.1 19 Este 35 Nordeste 0 -- -- 56
2020-07-06 20:00:00 22.6 15 Este 39 Este 0 -- -- 52
2020-07-06 19:00:00 23.9 22 Este 40 Nordeste 0 -- -- 49
2020-07-06 18:00:00 25.2 19 Este 35 Nordeste 0 -- -- 47
2020-07-06 17:00:00 25.9 16 Este 37 Este 0 -- -- 47
2020-07-06 16:00:00 25.3 23 Este 41 Este 0 -- -- 49
2020-07-06 15:00:00 25.5 22 Este 42 Este 0 -- -- 49
2020-07-06 14:00:00 24.6 24 Este 49 Este 0 -- -- 51
2020-07-06 13:00:00 24.3 22 Este 49 Este 0 -- -- 53
2020-07-06 12:00:00 23.6 22 Este 45 Este 0 -- -- 57
2020-07-06 11:00:00 20.7 17 Este 39 Este 0 -- -- 66
2020-07-06 10:00:00 19.1 16 Este 40 Este 0 -- -- 73
2020-07-06 09:00:00 17.9 20 Este 42 Nordeste 0 -- -- 75
2020-07-06 08:00:00 17.2 18 Este 41 Este 0 -- -- 78
2020-07-06 07:00:00 16.9 24 Este 46 Este 0 -- -- 79
2020-07-06 06:00:00 16.3 21 Este 40 Este 0 -- -- 83
2020-07-06 05:00:00 16 19 Este 31 Este 0 -- -- 86
2020-07-06 04:00:00 15.9 15 Este 32 Este 0 -- -- 86
2020-07-06 03:00:00 16.1 19 Este 34 Este 0 -- -- 86
2020-07-06 02:00:00 16.4 17 Este 28 Este 0 -- -- 86
2020-07-06 01:00:00 16.8 17 Este 33 Este 0 -- -- 85
2020-07-06 00:00:00 17.4 18 Este 36 Este 0 -- -- 83
2020-07-05 23:00:00 18 21 Este 33 Sudeste 0 -- -- 79
2020-07-05 22:00:00 19.9 13 Este 39 Este 0 -- -- 66
2020-07-05 21:00:00 22.1 20 Este 36 Este 0 -- -- 52
2020-07-05 20:00:00 24.1 14 Este 33 Nordeste 0 -- -- 49
2020-07-05 19:00:00 25.4 18 Este 35 Este 0 -- -- 51
2020-07-05 18:00:00 25.4 15 Este 28 Este 0 -- -- 49
2020-07-05 17:00:00 27.2 17 Este 32 Este 0 -- -- 44
2020-07-05 16:00:00 27.9 12 Este 30 Sudeste 0 -- -- 41
2020-07-05 15:00:00 30.2 14 Este 31 Este 0 -- -- 38
2020-07-05 14:00:00 27.8 13 Este 26 Este 0 -- -- 46
2020-07-05 13:00:00 26.6 17 Este 31 Este 0 -- -- 49
2020-07-05 12:00:00 25.7 17 Este 28 Este 0 -- -- 55
2020-07-05 11:00:00 23.5 15 Este 30 Este 0 -- -- 64
2020-07-05 10:00:00 21.8 17 Este 28 Este 0 -- -- 71
2020-07-05 09:00:00 19.2 16 Este 27 Este 0 -- -- 82
2020-07-05 08:00:00 17.5 13 Este 26 Este 0 -- -- 91
2020-07-05 07:00:00 16.5 10 Este 23 Este 0 -- -- 92
2020-07-05 06:00:00 16.7 8 Este 19 Este 0 -- -- 90
2020-07-05 05:00:00 16.6 8 Este 17 Este 0 -- -- 89
2020-07-05 04:00:00 16.8 6 Este 19 Este 0 -- -- 88
2020-07-05 03:00:00 17.4 9 Este 19 Este 0 -- -- 86
2020-07-05 02:00:00 17.4 10 Este 21 Este 0 -- -- 86
2020-07-05 01:00:00 17.9 15 Este 24 Este 0 -- -- 83
2020-07-05 00:00:00 18.6 11 Este 22 Nordeste 0 -- -- 79
2020-07-04 23:00:00 19.5 6 Este 24 Este 0 -- -- 73
2020-07-04 22:00:00 20.6 14 Este 26 Este 0 -- -- 65
2020-07-04 21:00:00 22.8 6 Este 28 Este 0 -- -- 57
2020-07-04 20:00:00 24.8 6 Nordeste 21 Nordeste 0 -- -- 52
2020-07-04 19:00:00 27.3 8 Nordeste 24 Nordeste 0 -- -- 47
2020-07-04 18:00:00 29.1 10 Nordeste 27 Nordeste 0 -- -- 44
2020-07-04 17:00:00 29.8 4 Este 22 Este 0 -- -- 41
2020-07-04 16:00:00 29.1 11 Este 21 Sudeste 0 -- -- 38
2020-07-04 15:00:00 27 7 Este 21 Este 0 -- -- 38
2020-07-04 14:00:00 26.6 6 Este 19 Este 0 -- -- 39
2020-07-04 13:00:00 24.6 11 Este 21 Este 0 -- -- 43
2020-07-04 12:00:00 22.4 11 Este 17 Este 0 -- -- 49
2020-07-04 11:00:00 19.2 7 Este 13 Este 0 -- -- 60
2020-07-04 10:00:00 17.2 8 Este 21 Este 0 -- -- 69
2020-07-04 09:00:00 14 10 Este 21 Este 0 -- -- 79
2020-07-04 08:00:00 11.3 11 Este 21 Este 0 -- -- 91
2020-07-04 07:00:00 10.4 11 Este 21 Este 0 -- -- 91
2020-07-04 06:00:00 10.8 11 Nordeste 19 Este 0 -- -- 89
2020-07-04 05:00:00 10.8 11 Este 21 Este 0 -- -- 89
2020-07-04 04:00:00 11.7 10 Nordeste 17 Este 0 -- -- 85
2020-07-04 03:00:00 12.4 9 Este 19 Este 0 -- -- 83
2020-07-04 02:00:00 12.6 7 Este 18 Este 0 -- -- 80
2020-07-04 01:00:00 13.2 6 Este 20 Este 0 -- -- 75
2020-07-04 00:00:00 14 10 Este 20 Este 0 -- -- 72
2020-07-03 23:00:00 14.4 5 Nordeste 23 Este 0 -- -- 70
2020-07-03 22:00:00 16.4 9 Este 21 Este 0 -- -- 63
2020-07-03 21:00:00 18.6 6 Este 19 Nordeste 0 -- -- 56
2020-07-03 20:00:00 19.9 9 Este 23 Este 0 -- -- 49
2020-07-03 19:00:00 21.6 10 Nordeste 22 Este 0 -- -- 46
2020-07-03 18:00:00 23.5 10 Nordeste 23 Nordeste 0 -- -- 42
2020-07-03 17:00:00 24 7 Este 22 Este 0 -- -- 39
2020-07-03 16:00:00 23 8 Este 23 Este 0 -- -- 40
2020-07-03 15:00:00 21.2 10 Este 22 Este 0 -- -- 41
2020-07-03 14:00:00 21.2 12 Este 24 Este 0 -- -- 44
2020-07-03 13:00:00 19.2 10 Este 25 Este 0 -- -- 47
2020-07-03 12:00:00 18.9 14 Este 26 Este 0 -- -- 50
2020-07-03 11:00:00 17.1 13 Este 22 Este 0 -- -- 60
2020-07-03 10:00:00 14.1 10 Este 17 Este 0 -- -- 71
2020-07-03 09:00:00 11.5 10 Este 17 Nordeste 0 -- -- 83
2020-07-03 08:00:00 9 7 Nordeste 14 Nordeste 0 -- -- 92
2020-07-03 07:00:00 8 8 Nordeste 15 Nordeste 0 -- -- 92
2020-07-03 06:00:00 8.5 10 Nordeste 14 Nordeste 0 -- -- 92
2020-07-03 05:00:00 8.2 7 Nordeste 11 Nordeste 0 -- -- 91
2020-07-03 04:00:00 8.7 6 Nordeste 9 Nordeste 0 -- -- 89
2020-07-03 03:00:00 10.2 4 Nordeste 9 Nordeste 0 -- -- 86
2020-07-03 02:00:00 10.7 5 Nordeste 8 Este 0 -- -- 83
2020-07-03 01:00:00 11.5 3 Nordeste 6 Nordeste 0 -- -- 78
2020-07-03 00:00:00 12.4 2 Nordeste 7 Nordeste 0 -- -- 74
2020-07-02 23:00:00 13.2 0 Calma 11 Norte 0 -- -- 68
2020-07-02 22:00:00 14.8 8 Nordeste 15 Nordeste 0 -- -- 57
2020-07-02 21:00:00 16.9 8 Nordeste 21 Nordeste 0 -- -- 53
2020-07-02 20:00:00 18.2 11 Nordeste 24 Nordeste 0 -- -- 50
2020-07-02 19:00:00 18.6 5 Norte 23 Norte 0 -- -- 50
2020-07-02 18:00:00 20.7 6 Nordeste 17 Nordeste 0 -- -- 47
2020-07-02 17:00:00 19.9 10 Este 22 Este 0 -- -- 47
2020-07-02 16:00:00 19.5 6 Este 26 Este 0 -- -- 52
2020-07-02 15:00:00 18.4 5 Este 16 Sudeste 0 -- -- 57
2020-07-02 14:00:00 18.3 8 Este 21 Este 0 -- -- 57
2020-07-02 13:00:00 18.6 9 Este 22 Este 0 -- -- 58
2020-07-02 12:00:00 16.9 5 Sudeste 15 Este 0 -- -- 68
2020-07-02 11:00:00 15.1 10 Este 19 Nordeste 0 -- -- 77
2020-07-02 10:00:00 14.7 2 Este -- -- 0 -- -- 81
2020-07-02 09:00:00 13.8 0 Calma 8 Nordeste 0 -- -- 83
2020-07-02 08:00:00 12.8 4 Este 5 Este 0 -- -- 85
2020-07-02 07:00:00 12.6 0 Calma 9 Nordeste 0 -- -- 85
2020-07-02 06:00:00 12.6 3 Sur 16 Norte 0 -- -- 85
2020-07-02 05:00:00 12.2 5 Este 7 Nordeste 0 -- -- 82
2020-07-02 04:00:00 13.7 0 Calma 7 Este 0 -- -- 75
2020-07-02 03:00:00 13.9 0 Calma 8 Nordeste 0 -- -- 76
2020-07-02 02:00:00 14.2 0 Calma 5 Nordeste 0 -- -- 69
2020-07-02 01:00:00 15.1 0 Calma 6 Nordeste 0 -- -- 67
2020-07-02 00:00:00 15.8 2 Norte 12 Norte 0 -- -- 63
2020-07-01 23:00:00 16.2 2 Norte 14 Norte 0 -- -- 63
2020-07-01 22:00:00 16.8 3 Norte 13 Noroeste 0 -- -- 66
2020-07-01 21:00:00 19.1 0 Calma 17 Oeste 0 -- -- 58
2020-07-01 20:00:00 19.1 4 Oeste 13 Oeste 0 -- -- 60
2020-07-01 19:00:00 20.4 5 Oeste 21 Oeste 0 -- -- 60
2020-07-01 18:00:00 21.2 6 Oeste 21 Oeste 0 -- -- 58
2020-07-01 17:00:00 21.3 6 Oeste 17 Sudoeste 0 -- -- 57
2020-07-01 16:00:00 21.7 6 Oeste 19 Oeste 0 -- -- 57
2020-07-01 15:00:00 21.2 7 Oeste 18 Oeste 0 -- -- 59
2020-07-01 14:00:00 20.2 6 Oeste 18 Oeste 0 -- -- 62
2020-07-01 13:00:00 21.1 5 Oeste 17 Oeste 0 -- -- 64
2020-07-01 12:00:00 20.5 4 Oeste 18 Oeste 0 -- -- 69
2020-07-01 11:00:00 18.1 7 Oeste 15 Oeste 0 -- -- 77
2020-07-01 10:00:00 17.7 4 Oeste 12 Oeste 0 -- -- 91
2020-07-01 09:00:00 16.9 3 Oeste 6 Oeste 0 -- -- 92
2020-07-01 08:00:00 16.2 0 Calma 5 Oeste 0.3 -- -- 91
2020-07-01 07:00:00 16 0 Calma 3 Este 0 -- -- 90
2020-07-01 06:00:00 15.6 0 Calma 5 Nordeste 0 -- -- 90
2020-07-01 05:00:00 15.6 0 Calma 3 Nordeste 0 -- -- 89
2020-07-01 04:00:00 15.3 4 Nordeste 6 Nordeste 0 -- -- 89
2020-07-01 03:00:00 15.7 0 Calma 6 Sudoeste 0 -- -- 88
2020-07-01 02:00:00 16.2 2 Este 7 Este 0 -- -- 86
2020-07-01 01:00:00 17.1 6 Este 8 Nordeste 0 -- -- 81
2020-07-01 00:00:00 17.7 3 Nordeste 7 Este 0 -- -- 77
2020-06-30 23:00:00 19 4 Este 13 Este 0 -- -- 70
2020-06-30 22:00:00 19.9 6 Nordeste 15 Este 0 -- -- 64
2020-06-30 21:00:00 21.9 4 Nordeste 21 Norte 0 -- -- 57
2020-06-30 20:00:00 23.8 6 Norte 30 Norte 0 -- -- 54
2020-06-30 19:00:00 25.5 6 Nordeste 23 Nordeste 0 -- -- 50
2020-06-30 18:00:00 27.1 6 Nordeste 23 Norte 0 -- -- 48
2020-06-30 17:00:00 28.7 4 Nordeste 23 Este 0 -- -- 47
2020-06-30 16:00:00 28 9 Este 23 Este 0 -- -- 46
2020-06-30 15:00:00 27.3 12 Este 25 Este 0 -- -- 47
2020-06-30 14:00:00 26.8 8 Nordeste 28 Nordeste 0 -- -- 49
2020-06-30 13:00:00 25.7 20 Este 32 Este 0 -- -- 51
2020-06-30 12:00:00 24.8 17 Este 37 Este 0 -- -- 54
2020-06-30 11:00:00 22.3 15 Este 27 Este 0 -- -- 63
2020-06-30 10:00:00 19.7 10 Este 23 Este 0 -- -- 68
2020-06-30 09:00:00 17.2 13 Este 20 Este 0 -- -- 73
2020-06-30 08:00:00 14.8 12 Este 20 Este 0 -- -- 79
2020-06-30 07:00:00 13.1 12 Este 22 Este 0 -- -- 82
2020-06-30 06:00:00 13.4 13 Este 19 Este 0 -- -- 80
2020-06-30 05:00:00 13.8 9 Este 23 Este 0 -- -- 78
2020-06-30 04:00:00 14.5 12 Este 28 Este 0 -- -- 73
2020-06-30 03:00:00 14.6 15 Este 24 Este 0 -- -- 68
2020-06-30 02:00:00 14.4 7 Este 13 Este 0 -- -- 64
2020-06-30 01:00:00 15.6 8 Nordeste 20 Este 0 -- -- 56
2020-06-30 00:00:00 16.2 6 Este 20 Este 0 -- -- 52
2020-06-29 23:00:00 17.3 8 Este 26 Sudeste 0 -- -- 48
2020-06-29 22:00:00 19 13 Este 23 Este 0 -- -- 44
2020-06-29 21:00:00 20.3 9 Nordeste 28 Nordeste 0 -- -- 44
2020-06-29 20:00:00 22.5 11 Nordeste 24 Nordeste 0 -- -- 40
2020-06-29 19:00:00 23.8 12 Nordeste 23 Nordeste 0 -- -- 38
2020-06-29 18:00:00 24.7 11 Nordeste 27 Este 0 -- -- 34
2020-06-29 17:00:00 24.7 13 Este 26 Este 0 -- -- 37
2020-06-29 16:00:00 24.5 13 Este 32 Este 0 -- -- 41
2020-06-29 15:00:00 23.6 18 Este 30 Este 0 -- -- 43
2020-06-29 14:00:00 22.7 13 Este 26 Este 0 -- -- 48
2020-06-29 13:00:00 21.4 13 Este 26 Este 0 -- -- 53
2020-06-29 12:00:00 19.7 14 Este 28 Este 0 -- -- 63
2020-06-29 11:00:00 18 18 Este 27 Este 0 -- -- 67
2020-06-29 10:00:00 17.4 16 Este 26 Este 0 -- -- 73
2020-06-29 09:00:00 15.9 8 Este 16 Este 0 -- -- 83
2020-06-29 08:00:00 14.1 4 Este 11 Este 0 -- -- 91
2020-06-29 07:00:00 13.8 6 Este 12 Este 0.1 -- -- 90
2020-06-29 06:00:00 14.8 8 Este 14 Este 0 -- -- 89
2020-06-29 05:00:00 15.3 5 Este 9 Este 0 -- -- 89
2020-06-29 04:00:00 15.4 0 Calma 9 Nordeste 0 -- -- 89
2020-06-29 03:00:00 15.5 4 Este 9 Nordeste 0 -- -- 88
2020-06-29 02:00:00 15.8 0 Calma 6 Sudeste 0 -- -- 87
2020-06-29 01:00:00 16.1 6 Este 18 Sudeste 0 -- -- 86
2020-06-29 00:00:00 16.6 6 Nordeste 14 Este 0 -- -- 90
2020-06-28 23:00:00 17.7 0 Calma 4 Sudoeste 0 -- -- 91
2020-06-28 22:00:00 18 0 Calma 6 Oeste 0 -- -- 91
2020-06-28 21:00:00 18.4 3 Oeste 8 Oeste 0 -- -- 89
2020-06-28 20:00:00 18.9 2 Oeste 9 Norte 0 -- -- 89
2020-06-28 19:00:00 19.2 3 Oeste 11 Oeste 0 -- -- 89
2020-06-28 18:00:00 19.5 3 Oeste 12 Oeste 0 -- -- 90
2020-06-28 17:00:00 19 4 Oeste 12 Oeste 0 -- -- 91
2020-06-28 16:00:00 18.1 6 Oeste 14 Oeste 0 -- -- 91
2020-06-28 15:00:00 18.3 7 Oeste 18 Oeste 0 -- -- 92
2020-06-28 14:00:00 17.8 6 Oeste 16 Oeste 0 -- -- 93
2020-06-28 13:00:00 17 3 Oeste 12 Oeste 0 -- -- 93
2020-06-28 12:00:00 16.8 4 Oeste 12 Sudoeste 0 -- -- 93
2020-06-28 11:00:00 16.4 6 Oeste 12 Noroeste 0 -- -- 93
2020-06-28 10:00:00 15.7 3 Noroeste 11 Oeste 0 -- -- 93
2020-06-28 09:00:00 15.2 3 Oeste 9 Oeste 0 -- -- 93
2020-06-28 08:00:00 14.9 4 Oeste 9 Sudoeste 0.1 -- -- 93
2020-06-28 07:00:00 14.8 3 Oeste 13 Oeste 0 -- -- 93
2020-06-28 06:00:00 14.7 3 Oeste 8 Sudoeste 0 -- -- 93
2020-06-28 05:00:00 14.6 2 Oeste 7 Oeste 0 -- -- 93
2020-06-28 04:00:00 14.6 4 Oeste 9 Oeste 0 -- -- 93
2020-06-28 03:00:00 14.6 0 Calma 8 Oeste 0 -- -- 93
2020-06-28 02:00:00 15 2 Oeste 7 Noroeste 0 -- -- 93
2020-06-28 01:00:00 15.1 4 Oeste 9 Oeste 0 -- -- 93
2020-06-28 00:00:00 15.3 2 Oeste 6 Oeste 0 -- -- 93
2020-06-27 23:00:00 15.5 4 Oeste 17 Oeste 0 -- -- 93
2020-06-27 22:00:00 16 7 Oeste 17 Oeste 0 -- -- 92
2020-06-27 21:00:00 16.6 6 Oeste 18 Noroeste 0 -- -- 92
2020-06-27 20:00:00 16.7 7 Oeste 24 Oeste 0 -- -- 92
2020-06-27 19:00:00 17.4 8 Oeste 21 Oeste 0 -- -- 91
2020-06-27 18:00:00 18.2 7 Oeste 20 Oeste 0 -- -- 93
2020-06-27 17:00:00 17.3 6 Oeste 17 Oeste 0 -- -- 94
2020-06-27 16:00:00 16.8 6 Oeste 23 Oeste 0 -- -- 94
2020-06-27 15:00:00 16.7 10 Oeste 23 Oeste 0.1 -- -- 94
2020-06-27 14:00:00 16.7 9 Oeste 23 Oeste 0.1 -- -- 94
2020-06-27 13:00:00 16.7 10 Oeste 27 Oeste 0.2 -- -- 94
2020-06-27 12:00:00 16.6 9 Oeste 20 Oeste 0.1 -- -- 94
2020-06-27 11:00:00 16.4 6 Oeste 16 Oeste 0.6 -- -- 94
2020-06-27 10:00:00 16 5 Oeste 15 Oeste 0.6 -- -- 94
2020-06-27 09:00:00 15.8 5 Oeste 15 Oeste 0.6 -- -- 94
2020-06-27 08:00:00 15.4 6 Oeste 12 Oeste 0.8 -- -- 94
2020-06-27 07:00:00 15.3 5 Oeste 15 Oeste 0.5 -- -- 94
2020-06-27 06:00:00 15.3 4 Oeste 15 Noroeste 0.3 -- -- 94
2020-06-27 05:00:00 15.4 8 Oeste 21 Oeste 0.1 -- -- 94
2020-06-27 04:00:00 15.6 9 Oeste 23 Oeste 0 -- -- 94
2020-06-27 03:00:00 15.9 7 Oeste 19 Oeste 0.2 -- -- 94
2020-06-27 02:00:00 15.9 8 Oeste 21 Oeste 0.1 -- -- 94
2020-06-27 01:00:00 15.8 7 Oeste 17 Noroeste 0 -- -- 94
2020-06-27 00:00:00 15.7 7 Oeste 18 Oeste 0 -- -- 94
2020-06-26 23:00:00 15.4 6 Oeste 11 Oeste 0.3 -- -- 94
2020-06-26 22:00:00 15.3 5 Noroeste 12 Oeste 0.2 -- -- 94
2020-06-26 21:00:00 15.2 5 Oeste 15 Oeste 0.7 -- -- 94
2020-06-26 20:00:00 14.9 6 Oeste 15 Oeste 0.6 -- -- 94
2020-06-26 19:00:00 14.8 7 Oeste 22 Oeste 0.3 -- -- 94
2020-06-26 18:00:00 15.7 8 Oeste 23 Oeste 0 -- -- 90
2020-06-26 17:00:00 16.7 10 Oeste 28 Oeste 0 -- -- 70
2020-06-26 16:00:00 19.2 11 Oeste 27 Noroeste 0 -- -- 56
2020-06-26 15:00:00 18.5 9 Oeste 24 Oeste 0 -- -- 63
2020-06-26 14:00:00 19 6 Oeste 19 Oeste 0 -- -- 69
2020-06-26 13:00:00 18.7 8 Oeste 23 Oeste 0 -- -- 68
2020-06-26 12:00:00 17.5 9 Oeste 27 Oeste 0 -- -- 70
2020-06-26 11:00:00 17.9 6 Oeste 17 Noroeste 0 -- -- 74
2020-06-26 10:00:00 16.9 3 Oeste 10 Oeste 0 -- -- 80
2020-06-26 09:00:00 14.7 0 Calma 5 Oeste 0 -- -- 88
2020-06-26 08:00:00 14.1 0 Calma 6 Este 0 -- -- 89
2020-06-26 07:00:00 13.8 0 Calma 2 Noroeste 0 -- -- 89
2020-06-26 06:00:00 13.9 0 Calma 5 Nordeste 0 -- -- 87
2020-06-26 05:00:00 14.2 0 Calma 6 Este 0 -- -- 86
2020-06-26 04:00:00 14.4 5 Este 8 Este 0 -- -- 86
2020-06-26 03:00:00 14.6 3 Este 10 Este 0 -- -- 83
2020-06-26 02:00:00 14.8 4 Nordeste 9 Este 0 -- -- 83
2020-06-26 01:00:00 14.2 6 Este 10 Este 0 -- -- 83
2020-06-26 00:00:00 14.4 5 Este 9 Este 0 -- -- 79
2020-06-25 23:00:00 15.3 6 Este 14 Nordeste 0 -- -- 73
2020-06-25 22:00:00 17.3 9 Este 17 Nordeste 0 -- -- 68
2020-06-25 21:00:00 19.1 4 Nordeste 12 Nordeste 0 -- -- 64
2020-06-25 20:00:00 20.2 0 Calma 10 Oeste 0 -- -- 67
2020-06-25 19:00:00 21 4 Oeste 14 Oeste 0 -- -- 63
2020-06-25 18:00:00 24 5 Oeste 13 Sudoeste 0 -- -- 56
2020-06-25 17:00:00 23.5 0 Calma 14 Este 0 -- -- 55
2020-06-25 16:00:00 21.7 5 Sudeste 14 Este 0 -- -- 60
2020-06-25 15:00:00 20.9 5 Este 12 Este 0 -- -- 64
2020-06-25 14:00:00 19.3 6 Este 11 Este 0 -- -- 68
2020-06-25 13:00:00 18 4 Este 17 Este 0 -- -- 73
2020-06-25 12:00:00 17.3 11 Este 21 Este 0 -- -- 74
2020-06-25 11:00:00 17.3 9 Este 18 Este 0 -- -- 77
2020-06-25 10:00:00 16.4 7 Nordeste 18 Nordeste 0 -- -- 82
2020-06-25 09:00:00 15.5 5 Nordeste 12 Nordeste 0 -- -- 85
2020-06-25 08:00:00 15.3 3 Nordeste 14 Este 0 -- -- 84
2020-06-25 07:00:00 15.4 5 Este 14 Este 0 -- -- 83
2020-06-25 06:00:00 15.4 0 Calma 9 Este 0 -- -- 83
2020-06-25 05:00:00 15.4 3 Este 10 Este 0 -- -- 83
2020-06-25 04:00:00 15.5 5 Nordeste 18 Nordeste 0 -- -- 83
2020-06-25 03:00:00 15.7 8 Nordeste 17 Nordeste 0 -- -- 83
2020-06-25 02:00:00 16.4 6 Nordeste 13 Este 0 -- -- 82
2020-06-25 01:00:00 16.7 5 Norte 11 Norte 0 -- -- 81
2020-06-25 00:00:00 17 0 Calma 6 Este 0 -- -- 81
2020-06-24 23:00:00 16.9 3 Nordeste 13 Nordeste 0 -- -- 79
2020-06-24 22:00:00 18.5 7 Este 13 Nordeste 0 -- -- 72
2020-06-24 21:00:00 20.4 7 Este 14 Este 0 -- -- 67
2020-06-24 20:00:00 21.3 3 Oeste 12 Oeste 0 -- -- 69
2020-06-24 19:00:00 23.3 3 Oeste 11 Oeste 0 -- -- 64
2020-06-24 18:00:00 23.7 5 Sudoeste 13 Sudoeste 0 -- -- 63
2020-06-24 17:00:00 22.7 4 Oeste 15 Oeste 0 -- -- 62
2020-06-24 16:00:00 23.6 3 Noroeste 12 Oeste 0 -- -- 59
2020-06-24 15:00:00 21.9 3 Oeste 8 Oeste 0 -- -- 64
2020-06-24 14:00:00 20.6 0 Calma 9 Noroeste 0 -- -- 70
2020-06-24 13:00:00 19.5 2 Este 9 Este 0 -- -- 75
2020-06-24 12:00:00 17.3 0 Calma 7 Este 0 -- -- 84
2020-06-24 11:00:00 16.5 2 Sudeste 9 Este 0 -- -- 88
2020-06-24 10:00:00 15.9 4 Este 9 Este 0 -- -- 89
2020-06-24 09:00:00 15.8 4 Nordeste 9 Nordeste 0 -- -- 90
2020-06-24 08:00:00 15.7 2 Este 8 Nordeste 0 -- -- 90
2020-06-24 07:00:00 15.7 0 Calma 6 Este 0 -- -- 90
2020-06-24 06:00:00 15.8 0 Calma 6 Sudeste 0 -- -- 89
2020-06-24 05:00:00 15.8 2 Sudeste 9 Este 0 -- -- 89
2020-06-24 04:00:00 16 0 Calma 8 Este 0 -- -- 89
2020-06-24 03:00:00 15.6 3 Este 10 Este 0 -- -- 89
2020-06-24 02:00:00 15.8 2 Este 8 Nordeste 0 -- -- 88
2020-06-24 01:00:00 17 0 Calma 8 Este 0 -- -- 86
2020-06-24 00:00:00 17.8 4 Este 8 Este 0 -- -- 80
2020-06-23 23:00:00 19 0 Calma 2 Oeste 0 -- -- 76
2020-06-23 22:00:00 20.7 0 Calma 8 Oeste 0 -- -- 69
2020-06-23 21:00:00 23.8 2 Oeste 10 Oeste 0 -- -- 59
2020-06-23 20:00:00 25.5 4 Noroeste 14 Noroeste 0 -- -- 49
2020-06-23 19:00:00 27.4 6 Oeste 14 Noroeste 0 -- -- 45
2020-06-23 18:00:00 28.7 6 Oeste 17 Oeste 0 -- -- 43
2020-06-23 17:00:00 29.7 7 Oeste 18 Noroeste 0 -- -- 43
2020-06-23 16:00:00 30.4 6 Oeste 15 Sudoeste 0 -- -- 42
2020-06-23 15:00:00 30.9 6 Oeste 17 Oeste 0 -- -- 39
2020-06-23 14:00:00 30.1 3 Oeste 10 Oeste 0 -- -- 43
2020-06-23 13:00:00 28.1 2 Oeste 9 Nordeste 0 -- -- 50
2020-06-23 12:00:00 26.7 5 Este 15 Este 0 -- -- 51
2020-06-23 11:00:00 24.4 9 Este 18 Este 0 -- -- 60
2020-06-23 10:00:00 21.9 10 Este 23 Este 0 -- -- 68
2020-06-23 09:00:00 18.7 14 Este 23 Este 0 -- -- 81
2020-06-23 08:00:00 16.5 15 Este 22 Este 0 -- -- 91
2020-06-23 07:00:00 15.8 9 Nordeste 14 Nordeste 0 -- -- 91
2020-06-23 06:00:00 15.9 8 Nordeste 22 Este 0 -- -- 91
2020-06-23 05:00:00 16.2 10 Nordeste 17 Nordeste 0 -- -- 89
2020-06-23 04:00:00 17 9 Nordeste 19 Este 0 -- -- 87
2020-06-23 03:00:00 17.8 11 Nordeste 20 Nordeste 0 -- -- 83
2020-06-23 02:00:00 18.2 8 Este 16 Este 0 -- -- 83
2020-06-23 01:00:00 18.9 8 Nordeste 12 Nordeste 0 -- -- 79
2020-06-23 00:00:00 19.7 3 Este 10 Nordeste 0 -- -- 73
2020-06-22 23:00:00 20.9 4 Este 13 Este 0 -- -- 64
2020-06-22 22:00:00 21.9 5 Este 13 Nordeste 0 -- -- 53
2020-06-22 21:00:00 23.7 6 Nordeste 13 Este 0 -- -- 47
2020-06-22 20:00:00 26.8 7 Nordeste 18 Norte 0 -- -- 44
2020-06-22 19:00:00 28.7 5 Nordeste 19 Nordeste 0 -- -- 43
2020-06-22 18:00:00 30.1 4 Nordeste 17 Nordeste 0 -- -- 40
2020-06-22 17:00:00 30.6 2 Este 14 Este 0 -- -- 39
2020-06-22 16:00:00 29.6 6 Sudeste 14 Sudeste 0 -- -- 41
2020-06-22 15:00:00 28.9 8 Este 17 Este 0 -- -- 44
2020-06-22 14:00:00 27.2 10 Este 17 Este 0 -- -- 46
2020-06-22 13:00:00 26 7 Este 18 Este 0 -- -- 50
2020-06-22 12:00:00 23.7 7 Este 14 Este 0 -- -- 61
2020-06-22 11:00:00 21.1 7 Este 16 Este 0 -- -- 70
2020-06-22 10:00:00 18.5 10 Este 19 Este 0 -- -- 77
2020-06-22 09:00:00 15.2 10 Este 19 Nordeste 0 -- -- 93
2020-06-22 08:00:00 13.1 10 Este 19 Nordeste 0 -- -- 95
2020-06-22 07:00:00 12.5 3 Nordeste 17 Nordeste 0 -- -- 94
2020-06-22 06:00:00 12.9 8 Nordeste 14 Nordeste 0 -- -- 94
2020-06-22 05:00:00 12.9 5 Nordeste 15 Nordeste 0 -- -- 93
2020-06-22 04:00:00 13.4 8 Nordeste 16 Nordeste 0 -- -- 93
2020-06-22 03:00:00 13.7 7 Nordeste 11 Nordeste 0 -- -- 93
2020-06-22 02:00:00 14.4 3 Nordeste 8 Nordeste 0 -- -- 91
2020-06-22 01:00:00 15.4 5 Nordeste 12 Nordeste 0 -- -- 90
2020-06-22 00:00:00 16.5 8 Este 12 Este 0 -- -- 90
2020-06-21 23:00:00 17.6 0 Calma 4 Norte 0 -- -- 90
2020-06-21 22:00:00 17.9 0 Calma 4 Oeste 0 -- -- 87
2020-06-21 21:00:00 19.6 2 Oeste 7 Oeste 0 -- -- 82
2020-06-21 20:00:00 20.2 3 Oeste 12 Oeste 0 -- -- 78
2020-06-21 19:00:00 20.3 4 Oeste 10 Oeste 0 -- -- 78
2020-06-21 18:00:00 20.9 5 Oeste 15 Oeste 0 -- -- 77
2020-06-21 17:00:00 19.8 4 Oeste 13 Oeste 0 -- -- 82
2020-06-21 16:00:00 17.9 4 Oeste 13 Oeste 0 -- -- 91
2020-06-21 15:00:00 17.8 4 Oeste 15 Oeste 0.1 -- -- 91
2020-06-21 14:00:00 18 6 Oeste 19 Oeste 0 -- -- 91
2020-06-21 13:00:00 17.5 5 Oeste 17 Oeste 0 -- -- 91
2020-06-21 12:00:00 17.4 6 Oeste 18 Oeste 0 -- -- 91
2020-06-21 11:00:00 16.9 5 Sudoeste 14 Sudoeste 0 -- -- 92
2020-06-21 10:00:00 16.4 4 Sudoeste 15 Sudoeste 0 -- -- 94
2020-06-21 09:00:00 16.2 2 Oeste 11 Oeste 0 -- -- 94
2020-06-21 08:00:00 15.9 4 Oeste 12 Oeste 0.1 -- -- 94
2020-06-21 07:00:00 15.8 4 Oeste 16 Oeste 0.2 -- -- 94
2020-06-21 06:00:00 15.8 3 Noroeste 10 Oeste 0.3 -- -- 94
2020-06-21 05:00:00 15.9 6 Oeste 18 Noroeste 1.1 -- -- 94
2020-06-21 04:00:00 16.1 4 Oeste 13 Oeste 0 -- -- 91
2020-06-21 03:00:00 16 4 Oeste 10 Oeste 0.1 -- -- 91
2020-06-21 02:00:00 16.3 2 Oeste 6 Oeste 0 -- -- 90
2020-06-21 01:00:00 16.3 0 Calma 5 Oeste 0 -- -- 88
2020-06-21 00:00:00 16.3 0 Calma 6 Oeste 0 -- -- 86
2020-06-20 23:00:00 16.3 4 Oeste 15 Noroeste 0 -- -- 86
2020-06-20 22:00:00 17.2 5 Oeste 18 Oeste 0 -- -- 70
2020-06-20 21:00:00 18.2 8 Oeste 18 Oeste 0 -- -- 65
2020-06-20 20:00:00 19.5 8 Oeste 23 Oeste 0 -- -- 61
2020-06-20 19:00:00 20.3 9 Oeste 26 Oeste 0 -- -- 55
2020-06-20 18:00:00 21.3 9 Oeste 27 Oeste 0 -- -- 53
2020-06-20 17:00:00 22.3 9 Oeste 27 Oeste 0 -- -- 53
2020-06-20 16:00:00 21.6 10 Oeste 26 Oeste 0 -- -- 53
2020-06-20 15:00:00 22.1 7 Oeste 22 Oeste 0 -- -- 54
2020-06-20 14:00:00 21.8 7 Oeste 20 Oeste 0 -- -- 56
2020-06-20 13:00:00 19.5 6 Oeste 19 Oeste 0 -- -- 64
2020-06-20 12:00:00 19.9 4 Oeste 15 Oeste 0 -- -- 63
2020-06-20 11:00:00 18.8 4 Oeste 14 Oeste 0 -- -- 71
2020-06-20 10:00:00 17.7 3 Oeste 12 Oeste 0 -- -- 80
2020-06-20 09:00:00 15 0 Calma 4 Oeste 0 -- -- 91
2020-06-20 08:00:00 14.6 0 Calma 3 Oeste 0 -- -- 91
2020-06-20 07:00:00 14.2 0 Calma 2 Oeste 0 -- -- 90
2020-06-20 06:00:00 14.3 0 Calma 3 Oeste 0 -- -- 90
2020-06-20 05:00:00 14.4 0 Calma 4 Oeste 0 -- -- 90
2020-06-20 04:00:00 14.6 0 Calma 0 Calma 0 -- -- 89
2020-06-20 03:00:00 14.8 0 Calma 3 Sudoeste 0.1 -- -- 88
2020-06-20 02:00:00 15 0 Calma 8 Oeste 0 -- -- 87
2020-06-20 01:00:00 15.7 0 Calma 4 Oeste 0 -- -- 80
2020-06-20 00:00:00 15.8 0 Calma 10 Sudoeste 0 -- -- 78
2020-06-19 23:00:00 16.2 3 Oeste 12 Sudoeste 0 -- -- 75
2020-06-19 22:00:00 16.6 4 Oeste 15 Oeste 0 -- -- 73
2020-06-19 21:00:00 18.3 5 Oeste 15 Oeste 0 -- -- 64
2020-06-19 20:00:00 17.6 5 Oeste 18 Oeste 0 -- -- 64
2020-06-19 19:00:00 19.6 7 Oeste 18 Oeste 0 -- -- 53
2020-06-19 18:00:00 20.7 8 Oeste 20 Sudoeste 0 -- -- 49
2020-06-19 17:00:00 20.9 10 Oeste 22 Noroeste 0 -- -- 49
2020-06-19 16:00:00 21.6 8 Oeste 24 Oeste 0 -- -- 50
2020-06-19 15:00:00 21.1 7 Oeste 20 Norte 0 -- -- 50
2020-06-19 14:00:00 21.1 5 Oeste 14 Sudoeste 0 -- -- 49
2020-06-19 13:00:00 19.2 3 Oeste 13 Sudoeste 0 -- -- 50
2020-06-19 12:00:00 17.8 3 Oeste 9 Sudeste 0 -- -- 53
2020-06-19 11:00:00 16.5 5 Este 14 Este 0 -- -- 61
2020-06-19 10:00:00 14.3 9 Este 17 Este 0 -- -- 77
2020-06-19 09:00:00 11.3 11 Este 16 Este 0 -- -- 91
2020-06-19 08:00:00 9 4 Este 13 Nordeste 0 -- -- 94
2020-06-19 07:00:00 7.9 5 Nordeste 8 Nordeste 0 -- -- 92
2020-06-19 06:00:00 8.2 3 Nordeste 6 Nordeste 0 -- -- 92
2020-06-19 05:00:00 9.1 2 Este 6 Nordeste 0 -- -- 91
2020-06-19 04:00:00 9.6 4 Este 6 Nordeste 0 -- -- 90
2020-06-19 03:00:00 10.5 5 Nordeste 9 Nordeste 0 -- -- 86
2020-06-19 02:00:00 11.7 2 Nordeste 5 Este 0 -- -- 80
2020-06-19 01:00:00 12.7 0 Calma 6 Sur 0 -- -- 75
2020-06-19 00:00:00 13.7 2 Sudeste 8 Nordeste 0 -- -- 71
2020-06-18 23:00:00 13.9 6 Nordeste 13 Noroeste 0 -- -- 66
2020-06-18 22:00:00 15.4 4 Norte 15 Norte 0 -- -- 61
2020-06-18 21:00:00 17.5 0 Calma 16 Norte 0 -- -- 55
2020-06-18 20:00:00 18.7 4 Noroeste 15 Norte 0 -- -- 50
2020-06-18 19:00:00 19.4 3 Noroeste 15 Noroeste 0 -- -- 50
2020-06-18 18:00:00 20.6 2 Noroeste 14 Oeste 0 -- -- 49
2020-06-18 17:00:00 19.6 3 Noroeste 9 Noroeste 0 -- -- 51
2020-06-18 16:00:00 18.8 0 Calma 10 Oeste 0 -- -- 57
2020-06-18 15:00:00 19.1 3 Oeste 11 Oeste 0 -- -- 52
2020-06-18 14:00:00 20.1 0 Calma 12 Oeste 0 -- -- 50
2020-06-18 13:00:00 18.1 5 Este 12 Sudeste 0 -- -- 53
2020-06-18 12:00:00 17.4 3 Este 16 Este 0 -- -- 56
2020-06-18 11:00:00 15.4 11 Este 19 Este 0 -- -- 75
2020-06-18 10:00:00 11.2 13 Este 19 Este 0 -- -- 94
2020-06-18 09:00:00 9.8 10 Nordeste 17 Nordeste 0 -- -- 94
2020-06-18 08:00:00 9.2 5 Nordeste 8 Nordeste 0 -- -- 94
2020-06-18 07:00:00 8.8 4 Nordeste 7 Este 0 -- -- 94
2020-06-18 06:00:00 9.4 3 Nordeste 10 Nordeste 0 -- -- 93
2020-06-18 05:00:00 10 5 Nordeste 11 Nordeste 0 -- -- 91
2020-06-18 04:00:00 10.8 3 Nordeste 5 Nordeste 0 -- -- 88
2020-06-18 03:00:00 11.8 4 Este 8 Este 0 -- -- 86
2020-06-18 02:00:00 12.4 2 Nordeste 8 Este 0 -- -- 83
2020-06-18 01:00:00 13.1 4 Este 14 Nordeste 0 -- -- 79
2020-06-18 00:00:00 13.8 6 Nordeste 13 Este 0 -- -- 78
2020-06-17 23:00:00 14.2 5 Nordeste 13 Nordeste 0 -- -- 78
2020-06-17 22:00:00 15.1 5 Este 7 Este 0 -- -- 75
2020-06-17 21:00:00 15.9 0 Calma 6 Este 0 -- -- 73
2020-06-17 20:00:00 16.2 3 Este 6 Este 0 -- -- 73
2020-06-17 19:00:00 16.5 0 Calma 6 Oeste 0 -- -- 72
2020-06-17 18:00:00 16.2 3 Sudoeste 6 Sur 0 -- -- 77
2020-06-17 17:00:00 15 2 Sur 9 Oeste 0.7 -- -- 84
2020-06-17 16:00:00 15.4 0 Calma 6 Nordeste 0 -- -- 73
2020-06-17 15:00:00 16.7 0 Calma 8 Sur 0 -- -- 66
2020-06-17 14:00:00 15.2 4 Oeste 17 Oeste 0 -- -- 73
2020-06-17 13:00:00 15.6 3 Oeste 9 Oeste 0 -- -- 71
2020-06-17 12:00:00 17.1 4 Sudoeste 12 Este 0 -- -- 57
2020-06-17 11:00:00 15.4 6 Este 14 Este 0 -- -- 79
2020-06-17 10:00:00 12 8 Este 15 Este 0 -- -- 95
2020-06-17 09:00:00 10.4 9 Nordeste 14 Este 0 -- -- 95
2020-06-17 08:00:00 9.5 8 Nordeste 12 Nordeste 0 -- -- 95
2020-06-17 07:00:00 8.9 7 Nordeste 10 Nordeste 0 -- -- 95
2020-06-17 06:00:00 9.5 8 Nordeste 9 Nordeste 0 -- -- 94
2020-06-17 05:00:00 9.9 7 Nordeste 9 Nordeste 0 -- -- 94
2020-06-17 04:00:00 10.8 4 Nordeste 7 Nordeste 0 -- -- 92
2020-06-17 03:00:00 11.6 4 Nordeste 5 Nordeste 0 -- -- 90
2020-06-17 02:00:00 12.8 0 Calma 6 Nordeste 0 -- -- 88
2020-06-17 01:00:00 13 5 Nordeste 6 Nordeste 0 -- -- 88
2020-06-17 00:00:00 13.5 3 Nordeste 4 Nordeste 0 -- -- 83
2020-06-16 23:00:00 13.8 0 Calma 3 Oeste 0 -- -- 77
2020-06-16 22:00:00 14.2 0 Calma 6 Este 0 -- -- 73
2020-06-16 21:00:00 14.5 3 Norte 13 Noroeste 0 -- -- 72
2020-06-16 20:00:00 15.5 3 Norte 13 Norte 0 -- -- 75
2020-06-16 19:00:00 16.1 2 Noroeste 17 Oeste 0 -- -- 73
2020-06-16 18:00:00 16.5 5 Oeste 15 Noroeste 0 -- -- 75
2020-06-16 17:00:00 16.2 4 Oeste 15 Oeste 0 -- -- 82
2020-06-16 16:00:00 16.2 3 Oeste 14 Oeste 0 -- -- 86
2020-06-16 15:00:00 15.5 2 Noroeste 12 Sudoeste 0.2 -- -- 85
2020-06-16 14:00:00 14.4 0 Calma 13 Norte 2.2 -- -- 90
2020-06-16 13:00:00 15 6 Oeste 13 Oeste 0 -- -- 87
2020-06-16 12:00:00 15.3 0 Calma -- -- -- -- -- 85
2020-06-16 11:00:00 -- -- -- -- -- -- -- -- --
2020-06-16 10:00:00 13.5 0 Calma 6 Este 0 -- -- 94
2020-06-16 09:00:00 13.1 0 Calma 3 Sudeste 0.1 -- -- 94
2020-06-16 08:00:00 12.8 0 Calma 6 Sudoeste 1.2 -- -- 94
2020-06-16 07:00:00 12.8 0 Calma 9 Sur 0.9 -- -- 94
2020-06-16 06:00:00 12.9 2 Norte 16 Oeste 3.4 -- -- 94
2020-06-16 05:00:00 13.5 8 Oeste 15 Noroeste 1.1 -- -- 94
2020-06-16 04:00:00 13.5 7 Oeste 18 Oeste 4 -- -- 94
2020-06-16 03:00:00 14.1 5 Oeste 17 Sudoeste 0.9 -- -- 93
2020-06-16 02:00:00 14.1 4 Oeste 15 Sur 1.7 -- -- 93
2020-06-16 01:00:00 14.3 2 Oeste 10 Oeste 0.4 -- -- 90
2020-06-16 00:00:00 14.7 0 Calma 12 Oeste 0 -- -- 86
2020-06-15 23:00:00 14.9 6 Oeste 20 Oeste 0 -- -- 83
2020-06-15 22:00:00 15.5 6 Oeste 16 Oeste 0 -- -- 82
2020-06-15 21:00:00 15.9 4 Oeste 17 Oeste 0 -- -- 75
2020-06-15 20:00:00 16.4 5 Oeste 22 Oeste 0 -- -- 69
2020-06-15 19:00:00 18.5 6 Oeste 20 Oeste 0 -- -- 63
2020-06-15 18:00:00 18.6 10 Oeste 23 Oeste 0 -- -- 61
2020-06-15 17:00:00 19.9 6 Oeste 24 Oeste 0 -- -- 58
2020-06-15 16:00:00 19.2 9 Oeste 25 Oeste 0 -- -- 63
2020-06-15 15:00:00 18.4 9 Oeste 23 Oeste 0 -- -- 61
2020-06-15 14:00:00 19.1 8 Oeste 19 Sudoeste 0 -- -- 70
2020-06-15 13:00:00 18.1 8 Oeste 19 Oeste 0 -- -- 77
2020-06-15 12:00:00 15.7 6 Oeste 17 Oeste 0 -- -- 86
2020-06-15 11:00:00 15.5 5 Oeste 14 Oeste 1.3 -- -- 94
2020-06-15 10:00:00 15 5 Oeste 13 Oeste 0.1 -- -- 94
2020-06-15 09:00:00 13.8 0 Calma 9 Oeste 0.9 -- -- 94
2020-06-15 08:00:00 13.6 0 Calma 6 Oeste 0 -- -- 94
2020-06-15 07:00:00 13.3 2 Oeste 9 Oeste 0 -- -- 94
2020-06-15 06:00:00 13.4 2 Oeste 8 Oeste 0 -- -- 94
2020-06-15 05:00:00 13.6 3 Oeste 13 Oeste 0.1 -- -- 93
2020-06-15 04:00:00 13.8 4 Oeste 12 Oeste 0.1 -- -- 92
2020-06-15 03:00:00 13.7 2 Oeste 6 Oeste 0 -- -- 90
2020-06-15 02:00:00 13.5 0 Calma 8 Sudoeste 0 -- -- 90
2020-06-15 01:00:00 13.4 2 Oeste 9 Sudoeste 0 -- -- 89
2020-06-15 00:00:00 13 0 Calma 6 Oeste 0 -- -- 89
2020-06-14 23:00:00 13.1 3 Oeste 13 Oeste 0 -- -- 86
2020-06-14 22:00:00 14.5 5 Oeste 20 Oeste 0 -- -- 80
2020-06-14 21:00:00 15.2 8 Oeste 21 Oeste 0 -- -- 75
2020-06-14 20:00:00 16 10 Oeste 21 Sudoeste 0 -- -- 72
2020-06-14 19:00:00 16.5 7 Oeste 20 Oeste 0 -- -- 72
2020-06-14 18:00:00 16.5 9 Oeste 26 Sudoeste 0 -- -- 70
2020-06-14 17:00:00 16.5 9 Oeste 25 Sudoeste 0 -- -- 75
2020-06-14 16:00:00 16 10 Oeste 23 Sudoeste 0 -- -- 83
2020-06-14 15:00:00 17.1 9 Oeste 22 Oeste 0 -- -- 74
2020-06-14 14:00:00 17.3 9 Oeste 23 Oeste 0 -- -- 72
2020-06-14 13:00:00 17.3 6 Oeste 21 Sudoeste 0 -- -- 73
2020-06-14 12:00:00 15.9 7 Oeste 17 Oeste 0 -- -- 83
2020-06-14 11:00:00 16.3 5 Oeste 17 Oeste 0 -- -- 88
2020-06-14 10:00:00 15.8 3 Oeste 7 Oeste 0 -- -- 94
2020-06-14 09:00:00 13.7 0 Calma 3 Oeste 0.1 -- -- 94
2020-06-14 08:00:00 13.1 0 Calma 5 Sudoeste 1 -- -- 94
2020-06-14 07:00:00 13.1 2 Noroeste 8 Noroeste 0.2 -- -- 94
2020-06-14 06:00:00 12.9 3 Oeste 8 Oeste 0 -- -- 94
2020-06-14 05:00:00 13 3 Oeste 9 Oeste 0 -- -- 94
2020-06-14 04:00:00 12.9 3 Oeste 11 Oeste 0.4 -- -- 93
2020-06-14 03:00:00 12.9 3 Oeste 10 Sudoeste 0.3 -- -- 91
2020-06-14 02:00:00 13.2 2 Oeste 10 Sudoeste 0 -- -- 89
2020-06-14 01:00:00 12.8 0 Calma 5 Oeste 0 -- -- 89
2020-06-14 00:00:00 12.6 0 Calma 5 Oeste 0 -- -- 88
2020-06-13 23:00:00 13.1 3 Oeste 14 Oeste 0 -- -- 83
2020-06-13 22:00:00 13.9 7 Oeste 18 Oeste 0 -- -- 79
2020-06-13 21:00:00 14.4 8 Oeste 26 Oeste 0 -- -- 75
2020-06-13 20:00:00 15 8 Oeste 23 Oeste 0 -- -- 74
2020-06-13 19:00:00 15.1 9 Oeste 24 Oeste 0 -- -- 77
2020-06-13 18:00:00 15.1 11 Oeste 24 Oeste 0 -- -- 75
2020-06-13 17:00:00 15.8 13 Oeste 30 Oeste 0 -- -- 69
2020-06-13 16:00:00 16.6 9 Oeste 19 Oeste 0 -- -- 71
2020-06-13 15:00:00 14.9 8 Oeste 24 Oeste 0 -- -- 80
2020-06-13 14:00:00 15.2 9 Oeste 25 Oeste 0 -- -- 85
2020-06-13 13:00:00 15.1 9 Oeste 23 Noroeste 0 -- -- 86
2020-06-13 12:00:00 14.7 7 Oeste 20 Sudoeste 0 -- -- 92
2020-06-13 11:00:00 13.7 6 Oeste 18 Sudoeste 0 -- -- 94
2020-06-13 10:00:00 13 3 Oeste 15 Oeste 0.1 -- -- 94
2020-06-13 09:00:00 12.8 5 Oeste 16 Oeste 0.8 -- -- 94
2020-06-13 08:00:00 12.4 8 Oeste 21 Sudoeste 0.2 -- -- 94
2020-06-13 07:00:00 12.5 6 Oeste 15 Oeste 6.7 -- -- 93
2020-06-13 06:00:00 12.4 6 Oeste 15 Oeste 0 -- -- 92
2020-06-13 05:00:00 12.3 6 Oeste 13 Noroeste 0 -- -- 92
2020-06-13 04:00:00 12.3 5 Oeste 14 Oeste 0 -- -- 92
2020-06-13 03:00:00 12 5 Oeste 10 Sudoeste 0 -- -- 92
2020-06-13 02:00:00 11.7 2 Oeste 8 Oeste 0 -- -- 91
2020-06-13 01:00:00 11.8 2 Noroeste 8 Sudoeste 0 -- -- 90
2020-06-13 00:00:00 12.8 2 Oeste 9 Oeste 0 -- -- 89
2020-06-12 23:00:00 13 3 Oeste 10 Oeste 0 -- -- 88
2020-06-12 22:00:00 13.5 3 Oeste 10 Noroeste 0 -- -- 83
2020-06-12 21:00:00 14.4 0 Calma 10 Sudoeste 0 -- -- 85
2020-06-12 20:00:00 14.7 0 Calma 15 Norte 0.1 -- -- 83
2020-06-12 19:00:00 14.6 2 Noroeste 10 Noroeste 0 -- -- 86
2020-06-12 18:00:00 14.5 3 Norte 15 Norte 1.2 -- -- 83
2020-06-12 17:00:00 16.1 3 Noroeste 14 Noroeste 0 -- -- 78
2020-06-12 16:00:00 15.3 3 Oeste 22 Oeste 2 -- -- 91
2020-06-12 15:00:00 15.2 6 Oeste 17 Oeste 0 -- -- 86
2020-06-12 14:00:00 15.3 7 Oeste 17 Oeste 0 -- -- 88
2020-06-12 13:00:00 13.7 4 Oeste 10 Oeste 0.5 -- -- 94
2020-06-12 12:00:00 12.9 0 Calma 11 Oeste 1.5 -- -- 94
2020-06-12 11:00:00 12.8 0 Calma 12 Oeste 0.2 -- -- 94
2020-06-12 10:00:00 11.8 5 Oeste 12 Oeste 0.7 -- -- 94
2020-06-12 09:00:00 11.3 4 Oeste 9 Oeste 0.3 -- -- 94
2020-06-12 08:00:00 10.8 2 Oeste 6 Oeste 0 -- -- 93
2020-06-12 07:00:00 10.1 0 Calma 4 Oeste 0 -- -- 93
2020-06-12 06:00:00 10.9 0 Calma 4 Sudoeste 0 -- -- 93
2020-06-12 05:00:00 11.3 0 Calma 8 Sur 0 -- -- 93
2020-06-12 04:00:00 11.7 0 Calma 9 Oeste 0.1 -- -- 93
2020-06-12 03:00:00 11.9 4 Oeste 14 Oeste 0.4 -- -- 93
2020-06-12 02:00:00 11.8 4 Oeste 20 Oeste 0.4 -- -- 93
2020-06-12 01:00:00 11.9 4 Sudoeste 10 Sudoeste 2 -- -- 93
2020-06-12 00:00:00 11.8 4 Oeste 14 Noroeste 0.2 -- -- 93